sensor_id;sensor_type;location;lat;lon;timestamp;temperature;humidity
1165;DHT22;571;50.930;6.926;2023-07-20T02:47:50;20.00;95.90
1165;DHT22;571;50.930;6.926;2023-07-20T02:50:17;19.90;96.00
1165;DHT22;571;50.930;6.926;2023-07-20T02:52:48;19.90;96.00
1165;DHT22;571;50.930;6.926;2023-07-20T02:55:15;19.90;96.10
1165;DHT22;571;50.930;6.926;2023-07-20T02:57:42;19.90;96.20
1165;DHT22;571;50.930;6.926;2023-07-20T03:00:10;19.80;96.20
1165;DHT22;571;50.930;6.926;2023-07-20T03:02:42;19.80;96.30
1165;DHT22;571;50.930;6.926;2023-07-20T03:05:14;19.80;95.90
1165;DHT22;571;50.930;6.926;2023-07-20T03:08:41;19.80;96.40
1165;DHT22;571;50.930;6.926;2023-07-20T03:12:26;19.70;96.40
1165;DHT22;571;50.930;6.926;2023-07-20T03:14:57;19.60;96.30
1165;DHT22;571;50.930;6.926;2023-07-20T03:17:36;19.60;96.50
1165;DHT22;571;50.930;6.926;2023-07-20T03:20:26;19.60;96.60
1165;DHT22;571;50.930;6.926;2023-07-20T03:23:03;19.60;96.50
1165;DHT22;571;50.930;6.926;2023-07-20T03:25:43;19.50;96.50
1165;DHT22;571;50.930;6.926;2023-07-20T03:28:20;19.50;96.60
1165;DHT22;571;50.930;6.926;2023-07-20T03:34:31;19.50;96.60
1165;DHT22;571;50.930;6.926;2023-07-20T03:44:13;19.40;96.50
1165;DHT22;571;50.930;6.926;2023-07-20T03:46:57;19.50;96.70
1165;DHT22;571;50.930;6.926;2023-07-20T03:49:50;19.40;96.70
1165;DHT22;571;50.930;6.926;2023-07-20T04:02:25;19.50;96.30
1165;DHT22;571;50.930;6.926;2023-07-20T04:11:53;19.40;96.30
1165;DHT22;571;50.930;6.926;2023-07-20T04:14:26;19.50;96.40
1165;DHT22;571;50.930;6.926;2023-07-20T04:17:23;19.40;96.40
1165;DHT22;571;50.930;6.926;2023-07-20T04:23:42;19.50;96.30
1165;DHT22;571;50.930;6.926;2023-07-20T04:26:22;19.50;96.30
1165;DHT22;571;50.930;6.926;2023-07-20T04:32:24;19.50;96.20
1165;DHT22;571;50.930;6.926;2023-07-20T04:38:47;19.60;96.10
1165;DHT22;571;50.930;6.926;2023-07-20T04:45:36;19.60;96.10
1165;DHT22;571;50.930;6.926;2023-07-20T04:48:41;19.70;96.00
1165;DHT22;571;50.930;6.926;2023-07-20T04:51:52;19.70;96.00
1165;DHT22;571;50.930;6.926;2023-07-20T04:54:52;19.70;96.10
1165;DHT22;571;50.930;6.926;2023-07-20T05:04:31;19.70;95.90
1165;DHT22;571;50.930;6.926;2023-07-20T05:07:32;19.80;95.90
1165;DHT22;571;50.930;6.926;2023-07-20T05:10:40;19.80;95.80
1165;DHT22;571;50.930;6.926;2023-07-20T05:13:16;19.90;95.80
1165;DHT22;571;50.930;6.926;2023-07-20T05:15:46;19.90;95.50
1165;DHT22;571;50.930;6.926;2023-07-20T05:18:23;19.90;95.80
1165;DHT22;571;50.930;6.926;2023-07-20T05:21:59;19.90;95.90
1165;DHT22;571;50.930;6.926;2023-07-20T05:24:41;19.90;95.50
1165;DHT22;571;50.930;6.926;2023-07-20T05:27:08;20.00;95.40
1165;DHT22;571;50.930;6.926;2023-07-20T05:29:35;20.00;95.40
1165;DHT22;571;50.930;6.926;2023-07-20T05:32:32;20.00;95.50
1165;DHT22;571;50.930;6.926;2023-07-20T05:35:02;20.00;95.50
1165;DHT22;571;50.930;6.926;2023-07-20T06:01:04;20.20;95.60
1165;DHT22;571;50.930;6.926;2023-07-20T06:04:15;20.30;95.50
1165;DHT22;571;50.930;6.926;2023-07-20T06:07:21;20.30;95.50
1165;DHT22;571;50.930;6.926;2023-07-20T06:13:48;20.40;95.10
1165;DHT22;571;50.930;6.926;2023-07-20T06:20:29;20.50;94.70
1165;DHT22;571;50.930;6.926;2023-07-20T06:23:46;20.50;94.40
1165;DHT22;571;50.930;6.926;2023-07-20T06:27:03;20.40;94.80
1165;DHT22;571;50.930;6.926;2023-07-20T06:34:11;20.40;94.80
1165;DHT22;571;50.930;6.926;2023-07-20T06:37:12;20.40;94.70
1165;DHT22;571;50.930;6.926;2023-07-20T06:39:41;20.40;95.00
1165;DHT22;571;50.930;6.926;2023-07-20T06:44:52;20.40;95.00
1165;DHT22;571;50.930;6.926;2023-07-20T06:47:23;20.50;94.70
1165;DHT22;571;50.930;6.926;2023-07-20T06:49:57;20.60;94.40
1165;DHT22;571;50.930;6.926;2023-07-20T06:55:54;20.70;94.40
1165;DHT22;571;50.930;6.926;2023-07-20T06:59:56;20.80;94.40
1165;DHT22;571;50.930;6.926;2023-07-20T07:08:49;20.80;94.30
1165;DHT22;571;50.930;6.926;2023-07-20T07:12:01;20.70;93.50
1165;DHT22;571;50.930;6.926;2023-07-20T07:15:07;20.70;94.00
1165;DHT22;571;50.930;6.926;2023-07-20T07:21:19;20.80;94.00
1165;DHT22;571;50.930;6.926;2023-07-20T07:24:10;21.00;93.50
1165;DHT22;571;50.930;6.926;2023-07-20T07:26:42;21.00;93.50
1165;DHT22;571;50.930;6.926;2023-07-20T07:29:26;21.10;93.10
1165;DHT22;571;50.930;6.926;2023-07-20T07:32:02;21.10;92.90
1165;DHT22;571;50.930;6.926;2023-07-20T07:34:54;21.10;92.80
1165;DHT22;571;50.930;6.926;2023-07-20T07:37:43;21.10;92.70
1165;DHT22;571;50.930;6.926;2023-07-20T07:40:29;21.20;92.50
1165;DHT22;571;50.930;6.926;2023-07-20T07:43:14;21.20;92.50
1165;DHT22;571;50.930;6.926;2023-07-20T07:45:50;21.20;92.80
1165;DHT22;571;50.930;6.926;2023-07-20T07:48:39;21.20;92.80
1165;DHT22;571;50.930;6.926;2023-07-20T07:51:27;21.30;92.40
1165;DHT22;571;50.930;6.926;2023-07-20T07:54:22;21.30;91.90
1165;DHT22;571;50.930;6.926;2023-07-20T07:57:06;21.40;92.00
1165;DHT22;571;50.930;6.926;2023-07-20T07:59:53;21.50;91.70
1165;DHT22;571;50.930;6.926;2023-07-20T08:02:32;21.70;91.10
1165;DHT22;571;50.930;6.926;2023-07-20T08:05:12;21.70;90.90
1165;DHT22;571;50.930;6.926;2023-07-20T08:08:04;21.60;91.00
1165;DHT22;571;50.930;6.926;2023-07-20T08:10:47;21.50;90.80
1165;DHT22;571;50.930;6.926;2023-07-20T08:13:35;21.50;91.10
1165;DHT22;571;50.930;6.926;2023-07-20T08:16:12;21.50;90.90
1165;DHT22;571;50.930;6.926;2023-07-20T08:18:51;21.50;91.10
1165;DHT22;571;50.930;6.926;2023-07-20T08:24:50;21.60;91.30
1165;DHT22;571;50.930;6.926;2023-07-20T08:27:25;21.70;90.40
1165;DHT22;571;50.930;6.926;2023-07-20T08:30:09;21.80;90.30
1165;DHT22;571;50.930;6.926;2023-07-20T08:32:55;21.90;90.20
1165;DHT22;571;50.930;6.926;2023-07-20T08:35:39;22.10;90.40
1165;DHT22;571;50.930;6.926;2023-07-20T08:38:33;22.10;88.60
1165;DHT22;571;50.930;6.926;2023-07-20T08:41:22;22.20;87.60
1165;DHT22;571;50.930;6.926;2023-07-20T08:45:34;22.30;86.80
1165;DHT22;571;50.930;6.926;2023-07-20T08:47:31;22.20;85.90
1165;DHT22;571;50.930;6.926;2023-07-20T08:50:12;22.10;86.50
1165;DHT22;571;50.930;6.926;2023-07-20T08:52:57;22.30;85.90
1165;DHT22;571;50.930;6.926;2023-07-20T08:55:39;22.30;84.80
1165;DHT22;571;50.930;6.926;2023-07-20T09:04:21;22.60;82.50
1165;DHT22;571;50.930;6.926;2023-07-20T09:07:45;22.60;81.10
1165;DHT22;571;50.930;6.926;2023-07-20T09:10:28;22.80;80.80
1165;DHT22;571;50.930;6.926;2023-07-20T09:13:34;22.70;80.40
1165;DHT22;571;50.930;6.926;2023-07-20T09:16:52;22.70;80.60
1165;DHT22;571;50.930;6.926;2023-07-20T09:19:54;22.90;81.90
1165;DHT22;571;50.930;6.926;2023-07-20T09:26:42;23.10;79.30
1165;DHT22;571;50.930;6.926;2023-07-20T09:30:01;23.20;77.00
1165;DHT22;571;50.930;6.926;2023-07-20T09:33:01;23.20;76.90
1165;DHT22;571;50.930;6.926;2023-07-20T09:35:53;23.30;76.70
1165;DHT22;571;50.930;6.926;2023-07-20T09:41:48;23.20;76.80
1165;DHT22;571;50.930;6.926;2023-07-20T09:51:01;23.10;75.20
1165;DHT22;571;50.930;6.926;2023-07-20T09:53:51;23.10;76.50
1165;DHT22;571;50.930;6.926;2023-07-20T09:56:52;23.20;76.00
1165;DHT22;571;50.930;6.926;2023-07-20T10:00:08;23.20;75.90
1165;DHT22;571;50.930;6.926;2023-07-20T10:06:19;23.30;77.10
1165;DHT22;571;50.930;6.926;2023-07-20T10:09:22;23.50;75.30
1165;DHT22;571;50.930;6.926;2023-07-20T10:15:28;23.80;71.70
1165;DHT22;571;50.930;6.926;2023-07-20T10:18:22;24.00;70.60
1165;DHT22;571;50.930;6.926;2023-07-20T10:31:20;24.60;65.90
1165;DHT22;571;50.930;6.926;2023-07-20T10:34:24;24.60;64.90
1165;DHT22;571;50.930;6.926;2023-07-20T10:40:42;24.40;62.30
1165;DHT22;571;50.930;6.926;2023-07-20T10:43:44;24.30;63.60
1165;DHT22;571;50.930;6.926;2023-07-20T10:59:42;24.10;62.90
1165;DHT22;571;50.930;6.926;2023-07-20T11:02:20;24.10;62.80
1165;DHT22;571;50.930;6.926;2023-07-20T11:05:54;24.10;62.70
1165;DHT22;571;50.930;6.926;2023-07-20T11:09:12;24.10;63.30
1165;DHT22;571;50.930;6.926;2023-07-20T11:15:46;24.20;61.60
1165;DHT22;571;50.930;6.926;2023-07-20T11:18:27;24.20;61.30
1165;DHT22;571;50.930;6.926;2023-07-20T11:31:26;24.60;62.10
1165;DHT22;571;50.930;6.926;2023-07-20T11:34:04;24.90;59.90
1165;DHT22;571;50.930;6.926;2023-07-20T11:37:18;24.90;59.40
1165;DHT22;571;50.930;6.926;2023-07-20T11:43:47;25.40;61.10
1165;DHT22;571;50.930;6.926;2023-07-20T11:50:18;25.60;59.60
1165;DHT22;571;50.930;6.926;2023-07-20T11:53:28;25.70;57.80
1165;DHT22;571;50.930;6.926;2023-07-20T11:56:24;25.80;58.30
1165;DHT22;571;50.930;6.926;2023-07-20T12:02:58;26.00;58.60
1165;DHT22;571;50.930;6.926;2023-07-20T12:09:14;26.70;55.70
1165;DHT22;571;50.930;6.926;2023-07-20T12:12:35;27.00;54.00
1165;DHT22;571;50.930;6.926;2023-07-20T12:15:41;27.10;53.50
1165;DHT22;571;50.930;6.926;2023-07-20T12:18:42;26.90;53.80
1165;DHT22;571;50.930;6.926;2023-07-20T12:21:59;26.70;52.80
1165;DHT22;571;50.930;6.926;2023-07-20T12:24:37;26.40;52.70
1165;DHT22;571;50.930;6.926;2023-07-20T12:27:06;26.20;53.40
1165;DHT22;571;50.930;6.926;2023-07-20T12:29:50;26.10;53.50
1165;DHT22;571;50.930;6.926;2023-07-20T12:32:56;25.80;53.30
1165;DHT22;571;50.930;6.926;2023-07-20T12:35:53;25.50;53.70
1165;DHT22;571;50.930;6.926;2023-07-20T12:38:53;25.40;54.70
1165;DHT22;571;50.930;6.926;2023-07-20T12:42:11;25.30;54.40
1165;DHT22;571;50.930;6.926;2023-07-20T12:45:08;24.90;54.80
1165;DHT22;571;50.930;6.926;2023-07-20T12:47:49;24.80;56.20
1165;DHT22;571;50.930;6.926;2023-07-20T12:50:43;24.80;55.90
1165;DHT22;571;50.930;6.926;2023-07-20T12:53:39;24.70;56.20
1165;DHT22;571;50.930;6.926;2023-07-20T12:58:33;24.80;56.30
1165;DHT22;571;50.930;6.926;2023-07-20T12:59:44;24.80;56.70
1165;DHT22;571;50.930;6.926;2023-07-20T13:08:46;25.10;56.70
1165;DHT22;571;50.930;6.926;2023-07-20T13:11:49;25.30;56.80
1165;DHT22;571;50.930;6.926;2023-07-20T13:14:47;25.30;55.90
1165;DHT22;571;50.930;6.926;2023-07-20T13:17:44;25.40;56.20
1165;DHT22;571;50.930;6.926;2023-07-20T13:20:36;25.50;54.10
1165;DHT22;571;50.930;6.926;2023-07-20T13:26:29;25.60;53.90
1165;DHT22;571;50.930;6.926;2023-07-20T13:30:07;25.70;53.30
1165;DHT22;571;50.930;6.926;2023-07-20T13:32:42;26.10;53.60
1165;DHT22;571;50.930;6.926;2023-07-20T13:35:48;26.30;53.50
1165;DHT22;571;50.930;6.926;2023-07-20T13:38:45;26.30;51.90
1165;DHT22;571;50.930;6.926;2023-07-20T13:44:55;26.10;52.60
1165;DHT22;571;50.930;6.926;2023-07-20T13:51:26;25.80;51.10
1165;DHT22;571;50.930;6.926;2023-07-20T13:54:29;25.70;51.40
1165;DHT22;571;50.930;6.926;2023-07-20T13:57:51;25.70;50.20
1165;DHT22;571;50.930;6.926;2023-07-20T14:00:32;25.80;50.80
1165;DHT22;571;50.930;6.926;2023-07-20T14:03:16;26.40;53.50
1165;DHT22;571;50.930;6.926;2023-07-20T14:06:05;27.40;49.60
1165;DHT22;571;50.930;6.926;2023-07-20T14:08:50;28.20;49.00
1165;DHT22;571;50.930;6.926;2023-07-20T14:11:38;29.10;46.20
1165;DHT22;571;50.930;6.926;2023-07-20T14:14:33;29.90;44.90
1165;DHT22;571;50.930;6.926;2023-07-20T14:17:25;30.80;41.80
1165;DHT22;571;50.930;6.926;2023-07-20T14:20:23;31.40;41.70
1165;DHT22;571;50.930;6.926;2023-07-20T14:23:12;31.90;40.10
1165;DHT22;571;50.930;6.926;2023-07-20T14:26:01;32.20;38.60
1165;DHT22;571;50.930;6.926;2023-07-20T14:29:14;31.90;39.00
1165;DHT22;571;50.930;6.926;2023-07-20T14:31:59;31.90;38.00
1165;DHT22;571;50.930;6.926;2023-07-20T14:34:59;32.10;38.30
1165;DHT22;571;50.930;6.926;2023-07-20T14:37:49;32.40;36.80
1165;DHT22;571;50.930;6.926;2023-07-20T14:40:59;32.60;34.30
1165;DHT22;571;50.930;6.926;2023-07-20T14:43:49;33.00;34.40
1165;DHT22;571;50.930;6.926;2023-07-20T14:46:47;33.30;34.70
1165;DHT22;571;50.930;6.926;2023-07-20T14:49:29;33.60;33.00
1165;DHT22;571;50.930;6.926;2023-07-20T14:52:26;33.80;32.00
1165;DHT22;571;50.930;6.926;2023-07-20T14:55:16;34.00;31.80
1165;DHT22;571;50.930;6.926;2023-07-20T14:58:22;34.20;31.60
1165;DHT22;571;50.930;6.926;2023-07-20T15:01:19;33.90;32.70
1165;DHT22;571;50.930;6.926;2023-07-20T15:51:03;34.00;32.40
1165;DHT22;571;50.930;6.926;2023-07-20T21:02:18;24.30;50.90
